Capitol Logistics 590


ZBAD
Beijing Daxing International Airport
Beijing, CN
ZGHA
Changsha Huanghua International Airport
Changcha, CN

Activity Log

Date Flight Route Aircraft Duration
12/25/2019 CPX590 VYK W37 EKORO W4 WXI A461 DAPRO DPR11A B744 2h 20m

Route Details

Aircraft Information
Primary: Boeing 747-400BCF
Backup: Boeing 777-200LRF
Route Data
Distance: 696nm
Sched. Duration: 1h 39m
Avg. Duration: 2h 20m (+80m)
Times Flown: 1
Recm'd Route: VYK W37 EKORO W4 WXI A461 DAPRO DPR11A
Planned Altitude: 36,000ft
Origin Wx: ZBAD 272330Z 21002MPS CAVOK 00/M04 Q1020 NOSIG
Dest. Wx: ZGHA 272300Z 34004MPS 3000 -DZ BR BKN004 OVC040 11/11 Q1019 BECMG AT0000 2800
Notes:

Financial History
Total Freight: 166,425lbs
Average Load: 166,425lbs/flt
Fuel Used: 31,857lbs
Avg. Fuel Used: 31,857lbs/flt
Fuel Expense: $25,486
Avg. Fuel Expense: $25,486
Avg. Fuel Cost: $0.80/lbs
Total Gross Income: $755,570
Pilot Pay: $259
Total Expenses: $81,654
Total Revenue: $647,861
Average Revenue: $755,569.50